sensor_id;sensor_type;location;lat;lon;timestamp;temperature;humidity
17202;DHT22;8717;53.588;10.176;2023-05-31T00:00:37;8.90;99.90
17202;DHT22;8717;53.588;10.176;2023-05-31T00:03:04;8.80;99.90
17202;DHT22;8717;53.588;10.176;2023-05-31T00:05:31;8.80;99.90
17202;DHT22;8717;53.588;10.176;2023-05-31T00:07:59;8.80;99.90
17202;DHT22;8717;53.588;10.176;2023-05-31T00:10:25;8.70;99.90
17202;DHT22;8717;53.588;10.176;2023-05-31T00:12:52;8.70;99.90
17202;DHT22;8717;53.588;10.176;2023-05-31T00:15:18;8.70;99.90
17202;DHT22;8717;53.588;10.176;2023-05-31T00:17:45;8.60;99.90
17202;DHT22;8717;53.588;10.176;2023-05-31T00:20:12;8.60;99.90
17202;DHT22;8717;53.588;10.176;2023-05-31T00:22:38;8.60;99.90
17202;DHT22;8717;53.588;10.176;2023-05-31T00:25:07;8.50;99.90
17202;DHT22;8717;53.588;10.176;2023-05-31T00:27:34;8.50;99.90
17202;DHT22;8717;53.588;10.176;2023-05-31T00:30:01;8.50;99.90
17202;DHT22;8717;53.588;10.176;2023-05-31T00:32:28;8.50;99.90
17202;DHT22;8717;53.588;10.176;2023-05-31T00:34:57;8.50;99.90
17202;DHT22;8717;53.588;10.176;2023-05-31T00:37:24;8.40;99.90
17202;DHT22;8717;53.588;10.176;2023-05-31T00:39:50;8.40;99.90
17202;DHT22;8717;53.588;10.176;2023-05-31T00:42:19;8.40;99.90
17202;DHT22;8717;53.588;10.176;2023-05-31T00:44:45;8.40;99.90
17202;DHT22;8717;53.588;10.176;2023-05-31T00:47:12;8.40;99.90
17202;DHT22;8717;53.588;10.176;2023-05-31T00:49:39;8.30;99.90
17202;DHT22;8717;53.588;10.176;2023-05-31T00:52:07;8.30;99.90
17202;DHT22;8717;53.588;10.176;2023-05-31T00:54:34;8.40;99.90
17202;DHT22;8717;53.588;10.176;2023-05-31T00:57:01;8.20;99.90
17202;DHT22;8717;53.588;10.176;2023-05-31T00:59:29;8.20;99.90
17202;DHT22;8717;53.588;10.176;2023-05-31T01:01:57;8.20;99.90
17202;DHT22;8717;53.588;10.176;2023-05-31T01:04:24;8.20;99.90
17202;DHT22;8717;53.588;10.176;2023-05-31T01:06:51;8.20;99.90
17202;DHT22;8717;53.588;10.176;2023-05-31T01:09:20;8.10;99.90
17202;DHT22;8717;53.588;10.176;2023-05-31T01:11:56;8.10;99.90
17202;DHT22;8717;53.588;10.176;2023-05-31T01:14:33;8.10;99.90
17202;DHT22;8717;53.588;10.176;2023-05-31T01:17:09;8.10;99.90
17202;DHT22;8717;53.588;10.176;2023-05-31T01:19:45;8.00;99.90
17202;DHT22;8717;53.588;10.176;2023-05-31T01:22:26;8.10;99.90
17202;DHT22;8717;53.588;10.176;2023-05-31T01:25:10;8.00;99.90
17202;DHT22;8717;53.588;10.176;2023-05-31T01:27:41;8.00;99.90
17202;DHT22;8717;53.588;10.176;2023-05-31T01:30:09;8.00;99.90
17202;DHT22;8717;53.588;10.176;2023-05-31T01:32:37;7.90;99.90
17202;DHT22;8717;53.588;10.176;2023-05-31T01:35:05;7.90;99.90
17202;DHT22;8717;53.588;10.176;2023-05-31T01:37:31;7.90;99.90
17202;DHT22;8717;53.588;10.176;2023-05-31T01:39:58;7.90;99.90
17202;DHT22;8717;53.588;10.176;2023-05-31T01:42:25;7.80;99.90
17202;DHT22;8717;53.588;10.176;2023-05-31T01:44:54;7.80;99.90
17202;DHT22;8717;53.588;10.176;2023-05-31T01:47:21;7.80;99.90
17202;DHT22;8717;53.588;10.176;2023-05-31T01:49:49;7.70;99.90
17202;DHT22;8717;53.588;10.176;2023-05-31T01:52:17;7.70;99.90
17202;DHT22;8717;53.588;10.176;2023-05-31T01:54:45;7.70;99.90
17202;DHT22;8717;53.588;10.176;2023-05-31T01:57:13;7.70;99.90
17202;DHT22;8717;53.588;10.176;2023-05-31T01:59:41;7.70;99.90
17202;DHT22;8717;53.588;10.176;2023-05-31T02:02:11;7.60;99.90
17202;DHT22;8717;53.588;10.176;2023-05-31T02:04:38;7.60;99.90
17202;DHT22;8717;53.588;10.176;2023-05-31T02:07:05;7.60;99.90
17202;DHT22;8717;53.588;10.176;2023-05-31T02:09:34;7.60;99.90
17202;DHT22;8717;53.588;10.176;2023-05-31T02:12:04;7.50;99.90
17202;DHT22;8717;53.588;10.176;2023-05-31T02:14:31;7.50;99.90
17202;DHT22;8717;53.588;10.176;2023-05-31T02:16:58;7.40;99.90
17202;DHT22;8717;53.588;10.176;2023-05-31T02:19:26;7.40;99.90
17202;DHT22;8717;53.588;10.176;2023-05-31T02:21:55;7.40;99.90
17202;DHT22;8717;53.588;10.176;2023-05-31T02:24:21;7.40;99.90
17202;DHT22;8717;53.588;10.176;2023-05-31T02:26:48;7.30;99.90
17202;DHT22;8717;53.588;10.176;2023-05-31T02:29:15;7.30;99.90
17202;DHT22;8717;53.588;10.176;2023-05-31T02:31:44;7.30;99.90
17202;DHT22;8717;53.588;10.176;2023-05-31T02:34:12;7.20;99.90
17202;DHT22;8717;53.588;10.176;2023-05-31T02:36:40;7.20;99.90
17202;DHT22;8717;53.588;10.176;2023-05-31T02:39:07;7.10;99.90
17202;DHT22;8717;53.588;10.176;2023-05-31T02:41:34;7.10;99.90
17202;DHT22;8717;53.588;10.176;2023-05-31T02:44:03;7.00;99.90
17202;DHT22;8717;53.588;10.176;2023-05-31T02:46:30;7.00;99.90
17202;DHT22;8717;53.588;10.176;2023-05-31T02:48:57;6.90;99.90
17202;DHT22;8717;53.588;10.176;2023-05-31T02:51:24;6.90;99.90
17202;DHT22;8717;53.588;10.176;2023-05-31T02:54:12;6.80;99.90
17202;DHT22;8717;53.588;10.176;2023-05-31T02:56:39;6.80;99.90
17202;DHT22;8717;53.588;10.176;2023-05-31T02:59:15;6.80;99.90
17202;DHT22;8717;53.588;10.176;2023-05-31T03:02:00;6.70;99.90
17202;DHT22;8717;53.588;10.176;2023-05-31T03:04:48;6.70;99.90
17202;DHT22;8717;53.588;10.176;2023-05-31T03:07:16;6.70;99.90
17202;DHT22;8717;53.588;10.176;2023-05-31T03:09:45;6.70;99.90
17202;DHT22;8717;53.588;10.176;2023-05-31T03:12:12;6.70;99.90
17202;DHT22;8717;53.588;10.176;2023-05-31T03:14:40;6.70;99.90
17202;DHT22;8717;53.588;10.176;2023-05-31T03:17:08;6.70;99.90
17202;DHT22;8717;53.588;10.176;2023-05-31T03:19:36;6.70;99.90
17202;DHT22;8717;53.588;10.176;2023-05-31T03:22:04;6.70;99.90
17202;DHT22;8717;53.588;10.176;2023-05-31T03:24:31;6.70;99.90
17202;DHT22;8717;53.588;10.176;2023-05-31T03:27:00;6.70;99.90
17202;DHT22;8717;53.588;10.176;2023-05-31T03:29:28;6.70;99.90
17202;DHT22;8717;53.588;10.176;2023-05-31T03:31:58;6.70;99.90
17202;DHT22;8717;53.588;10.176;2023-05-31T03:34:24;6.70;99.90
17202;DHT22;8717;53.588;10.176;2023-05-31T03:36:51;6.70;99.90
17202;DHT22;8717;53.588;10.176;2023-05-31T03:39:33;6.70;99.90
17202;DHT22;8717;53.588;10.176;2023-05-31T03:42:02;6.80;99.90
17202;DHT22;8717;53.588;10.176;2023-05-31T03:44:31;6.80;99.90
17202;DHT22;8717;53.588;10.176;2023-05-31T03:46:58;6.80;99.90
17202;DHT22;8717;53.588;10.176;2023-05-31T03:49:24;6.80;99.90
17202;DHT22;8717;53.588;10.176;2023-05-31T03:51:51;6.80;99.90
17202;DHT22;8717;53.588;10.176;2023-05-31T03:54:18;6.80;99.90
17202;DHT22;8717;53.588;10.176;2023-05-31T03:56:45;6.90;99.90
17202;DHT22;8717;53.588;10.176;2023-05-31T03:59:13;6.90;99.90
17202;DHT22;8717;53.588;10.176;2023-05-31T04:01:39;7.00;99.90
17202;DHT22;8717;53.588;10.176;2023-05-31T04:04:06;7.00;99.90
17202;DHT22;8717;53.588;10.176;2023-05-31T04:06:33;7.10;99.90
17202;DHT22;8717;53.588;10.176;2023-05-31T04:09:00;7.10;99.90
17202;DHT22;8717;53.588;10.176;2023-05-31T04:11:27;7.20;99.90
17202;DHT22;8717;53.588;10.176;2023-05-31T04:13:54;7.20;99.90
17202;DHT22;8717;53.588;10.176;2023-05-31T04:16:25;7.30;99.90
17202;DHT22;8717;53.588;10.176;2023-05-31T04:18:52;7.30;99.90
17202;DHT22;8717;53.588;10.176;2023-05-31T04:21:19;7.40;99.90
17202;DHT22;8717;53.588;10.176;2023-05-31T04:23:46;7.40;99.90
17202;DHT22;8717;53.588;10.176;2023-05-31T04:26:13;7.50;99.90
17202;DHT22;8717;53.588;10.176;2023-05-31T04:28:43;7.50;99.90
17202;DHT22;8717;53.588;10.176;2023-05-31T04:31:10;7.60;99.90
17202;DHT22;8717;53.588;10.176;2023-05-31T04:33:39;7.60;99.90
17202;DHT22;8717;53.588;10.176;2023-05-31T04:36:08;7.70;99.90
17202;DHT22;8717;53.588;10.176;2023-05-31T04:38:36;7.80;99.90
17202;DHT22;8717;53.588;10.176;2023-05-31T04:41:03;7.80;99.90
17202;DHT22;8717;53.588;10.176;2023-05-31T04:43:30;7.90;99.90
17202;DHT22;8717;53.588;10.176;2023-05-31T04:45:57;8.00;99.90
17202;DHT22;8717;53.588;10.176;2023-05-31T04:48:26;8.10;99.90
17202;DHT22;8717;53.588;10.176;2023-05-31T04:50:56;8.10;99.90
17202;DHT22;8717;53.588;10.176;2023-05-31T04:53:24;8.20;99.90
17202;DHT22;8717;53.588;10.176;2023-05-31T04:55:51;8.30;99.90
17202;DHT22;8717;53.588;10.176;2023-05-31T04:58:18;8.30;99.90
17202;DHT22;8717;53.588;10.176;2023-05-31T05:00:46;8.40;99.90
17202;DHT22;8717;53.588;10.176;2023-05-31T05:03:33;8.50;99.90
17202;DHT22;8717;53.588;10.176;2023-05-31T05:06:12;8.50;99.90
17202;DHT22;8717;53.588;10.176;2023-05-31T05:08:39;8.60;99.90
17202;DHT22;8717;53.588;10.176;2023-05-31T05:11:06;8.70;99.90
17202;DHT22;8717;53.588;10.176;2023-05-31T05:13:33;8.70;99.90
17202;DHT22;8717;53.588;10.176;2023-05-31T05:16:00;8.80;99.90
17202;DHT22;8717;53.588;10.176;2023-05-31T05:18:28;8.90;99.90
17202;DHT22;8717;53.588;10.176;2023-05-31T05:20:55;9.00;99.90
17202;DHT22;8717;53.588;10.176;2023-05-31T05:23:27;9.00;99.90
17202;DHT22;8717;53.588;10.176;2023-05-31T05:25:55;9.10;99.90
17202;DHT22;8717;53.588;10.176;2023-05-31T05:28:23;9.20;99.90
17202;DHT22;8717;53.588;10.176;2023-05-31T05:30:51;9.30;99.90
17202;DHT22;8717;53.588;10.176;2023-05-31T05:33:19;9.40;99.90
17202;DHT22;8717;53.588;10.176;2023-05-31T05:35:45;9.50;99.90
17202;DHT22;8717;53.588;10.176;2023-05-31T05:38:12;9.70;99.90
17202;DHT22;8717;53.588;10.176;2023-05-31T05:40:40;9.80;99.90
17202;DHT22;8717;53.588;10.176;2023-05-31T05:43:07;9.90;99.90
17202;DHT22;8717;53.588;10.176;2023-05-31T05:45:45;10.10;99.90
17202;DHT22;8717;53.588;10.176;2023-05-31T05:48:12;10.20;99.90
17202;DHT22;8717;53.588;10.176;2023-05-31T05:50:39;10.40;99.90
17202;DHT22;8717;53.588;10.176;2023-05-31T05:53:06;10.50;99.90
17202;DHT22;8717;53.588;10.176;2023-05-31T05:55:33;10.60;99.90
17202;DHT22;8717;53.588;10.176;2023-05-31T05:58:02;10.80;99.90
17202;DHT22;8717;53.588;10.176;2023-05-31T06:00:47;10.90;99.90
17202;DHT22;8717;53.588;10.176;2023-05-31T06:03:14;11.10;99.90
17202;DHT22;8717;53.588;10.176;2023-05-31T06:05:41;11.20;99.90
17202;DHT22;8717;53.588;10.176;2023-05-31T06:08:09;11.30;99.90
17202;DHT22;8717;53.588;10.176;2023-05-31T06:10:36;11.50;99.90
17202;DHT22;8717;53.588;10.176;2023-05-31T06:13:05;11.50;99.90
17202;DHT22;8717;53.588;10.176;2023-05-31T06:15:33;11.70;99.90
17202;DHT22;8717;53.588;10.176;2023-05-31T06:18:00;11.80;99.90
17202;DHT22;8717;53.588;10.176;2023-05-31T06:20:27;11.90;99.90
17202;DHT22;8717;53.588;10.176;2023-05-31T06:23:19;12.00;99.90
17202;DHT22;8717;53.588;10.176;2023-05-31T06:25:46;12.10;99.90
17202;DHT22;8717;53.588;10.176;2023-05-31T06:28:14;12.20;99.90
17202;DHT22;8717;53.588;10.176;2023-05-31T06:30:42;12.40;99.90
17202;DHT22;8717;53.588;10.176;2023-05-31T06:33:09;12.50;99.90
17202;DHT22;8717;53.588;10.176;2023-05-31T06:35:36;12.70;99.90
17202;DHT22;8717;53.588;10.176;2023-05-31T06:38:03;12.90;99.90
17202;DHT22;8717;53.588;10.176;2023-05-31T06:40:30;13.10;99.90
17202;DHT22;8717;53.588;10.176;2023-05-31T06:42:56;13.30;99.90
17202;DHT22;8717;53.588;10.176;2023-05-31T06:46:03;13.50;99.90
17202;DHT22;8717;53.588;10.176;2023-05-31T06:48:52;13.80;99.90
17202;DHT22;8717;53.588;10.176;2023-05-31T06:51:38;14.10;99.90
17202;DHT22;8717;53.588;10.176;2023-05-31T06:54:24;14.40;99.90
17202;DHT22;8717;53.588;10.176;2023-05-31T06:56:51;14.60;99.90
17202;DHT22;8717;53.588;10.176;2023-05-31T06:59:18;14.90;99.90
17202;DHT22;8717;53.588;10.176;2023-05-31T07:01:46;15.20;99.90
17202;DHT22;8717;53.588;10.176;2023-05-31T07:04:12;15.50;99.90
17202;DHT22;8717;53.588;10.176;2023-05-31T07:06:41;15.90;99.90
17202;DHT22;8717;53.588;10.176;2023-05-31T07:09:07;16.40;99.90
17202;DHT22;8717;53.588;10.176;2023-05-31T07:11:39;17.00;99.90
17202;DHT22;8717;53.588;10.176;2023-05-31T07:14:06;17.80;99.90
17202;DHT22;8717;53.588;10.176;2023-05-31T07:16:33;18.40;99.90
17202;DHT22;8717;53.588;10.176;2023-05-31T07:19:01;19.10;99.90
17202;DHT22;8717;53.588;10.176;2023-05-31T07:21:29;19.80;98.70
17202;DHT22;8717;53.588;10.176;2023-05-31T07:23:56;20.50;97.80
17202;DHT22;8717;53.588;10.176;2023-05-31T07:26:23;21.20;97.00
17202;DHT22;8717;53.588;10.176;2023-05-31T07:28:50;21.90;95.40
17202;DHT22;8717;53.588;10.176;2023-05-31T07:31:19;22.70;93.40
17202;DHT22;8717;53.588;10.176;2023-05-31T07:33:46;23.20;92.40
17202;DHT22;8717;53.588;10.176;2023-05-31T07:36:14;23.90;91.50
17202;DHT22;8717;53.588;10.176;2023-05-31T07:38:41;24.40;89.10
17202;DHT22;8717;53.588;10.176;2023-05-31T07:41:07;24.90;88.40
17202;DHT22;8717;53.588;10.176;2023-05-31T07:43:34;25.30;83.90
17202;DHT22;8717;53.588;10.176;2023-05-31T07:46:02;25.70;81.30
17202;DHT22;8717;53.588;10.176;2023-05-31T07:48:28;26.00;80.40
17202;DHT22;8717;53.588;10.176;2023-05-31T07:50:57;26.20;79.90
17202;DHT22;8717;53.588;10.176;2023-05-31T07:53:25;26.50;78.30
17202;DHT22;8717;53.588;10.176;2023-05-31T07:55:52;26.70;75.90
17202;DHT22;8717;53.588;10.176;2023-05-31T07:58:19;26.80;75.50
17202;DHT22;8717;53.588;10.176;2023-05-31T08:00:46;27.00;73.60
17202;DHT22;8717;53.588;10.176;2023-05-31T08:03:12;27.20;71.70
17202;DHT22;8717;53.588;10.176;2023-05-31T08:05:39;27.30;70.70
17202;DHT22;8717;53.588;10.176;2023-05-31T08:08:06;27.50;69.50
17202;DHT22;8717;53.588;10.176;2023-05-31T08:10:35;27.50;68.20
17202;DHT22;8717;53.588;10.176;2023-05-31T08:13:01;27.60;68.00
17202;DHT22;8717;53.588;10.176;2023-05-31T08:15:28;27.80;68.10
17202;DHT22;8717;53.588;10.176;2023-05-31T08:17:55;27.90;64.70
17202;DHT22;8717;53.588;10.176;2023-05-31T08:20:22;28.10;66.10
17202;DHT22;8717;53.588;10.176;2023-05-31T08:22:48;28.20;66.00
17202;DHT22;8717;53.588;10.176;2023-05-31T08:25:16;28.40;65.00
17202;DHT22;8717;53.588;10.176;2023-05-31T08:27:45;28.60;64.30
17202;DHT22;8717;53.588;10.176;2023-05-31T08:30:12;28.80;62.50
17202;DHT22;8717;53.588;10.176;2023-05-31T08:32:39;29.00;62.40
17202;DHT22;8717;53.588;10.176;2023-05-31T08:35:07;29.10;61.70
17202;DHT22;8717;53.588;10.176;2023-05-31T08:37:36;29.20;60.80
17202;DHT22;8717;53.588;10.176;2023-05-31T08:40:04;29.30;58.80
17202;DHT22;8717;53.588;10.176;2023-05-31T08:42:39;29.30;58.80
17202;DHT22;8717;53.588;10.176;2023-05-31T08:45:34;29.30;57.00
17202;DHT22;8717;53.588;10.176;2023-05-31T08:48:30;29.40;57.00
17202;DHT22;8717;53.588;10.176;2023-05-31T08:51:25;29.50;57.30
17202;DHT22;8717;53.588;10.176;2023-05-31T08:54:18;29.60;57.50
17202;DHT22;8717;53.588;10.176;2023-05-31T08:57:11;29.70;57.10
17202;DHT22;8717;53.588;10.176;2023-05-31T09:00:06;29.80;57.00
17202;DHT22;8717;53.588;10.176;2023-05-31T09:03:05;29.90;55.50
17202;DHT22;8717;53.588;10.176;2023-05-31T09:13:37;30.30;55.50
17202;DHT22;8717;53.588;10.176;2023-05-31T09:16:29;30.40;55.20
17202;DHT22;8717;53.588;10.176;2023-05-31T09:19:22;30.50;54.60
17202;DHT22;8717;53.588;10.176;2023-05-31T09:22:14;30.70;53.80
17202;DHT22;8717;53.588;10.176;2023-05-31T09:25:07;30.80;53.50
17202;DHT22;8717;53.588;10.176;2023-05-31T09:27:59;31.10;53.20
17202;DHT22;8717;53.588;10.176;2023-05-31T09:31:01;31.20;52.60
17202;DHT22;8717;53.588;10.176;2023-05-31T09:33:54;31.30;51.60
17202;DHT22;8717;53.588;10.176;2023-05-31T09:36:50;31.40;51.00
17202;DHT22;8717;53.588;10.176;2023-05-31T09:39:53;31.10;49.40
17202;DHT22;8717;53.588;10.176;2023-05-31T09:42:48;30.80;49.00
17202;DHT22;8717;53.588;10.176;2023-05-31T09:45:47;30.60;49.40
17202;DHT22;8717;53.588;10.176;2023-05-31T09:48:39;30.50;49.90
17202;DHT22;8717;53.588;10.176;2023-05-31T09:51:31;30.50;50.40
17202;DHT22;8717;53.588;10.176;2023-05-31T09:54:24;30.40;49.50
17202;DHT22;8717;53.588;10.176;2023-05-31T09:57:33;30.30;49.60
17202;DHT22;8717;53.588;10.176;2023-05-31T10:00:31;30.20;49.60
17202;DHT22;8717;53.588;10.176;2023-05-31T10:03:23;30.10;49.80
17202;DHT22;8717;53.588;10.176;2023-05-31T10:06:16;30.20;49.30
17202;DHT22;8717;53.588;10.176;2023-05-31T10:09:08;30.20;49.00
17202;DHT22;8717;53.588;10.176;2023-05-31T10:12:01;30.30;49.20
17202;DHT22;8717;53.588;10.176;2023-05-31T10:14:30;30.40;48.80
17202;DHT22;8717;53.588;10.176;2023-05-31T10:17:02;30.50;48.20
17202;DHT22;8717;53.588;10.176;2023-05-31T10:19:35;30.60;48.60
17202;DHT22;8717;53.588;10.176;2023-05-31T10:22:04;30.60;48.30
17202;DHT22;8717;53.588;10.176;2023-05-31T10:24:37;30.60;48.60
17202;DHT22;8717;53.588;10.176;2023-05-31T10:27:12;30.80;48.20
17202;DHT22;8717;53.588;10.176;2023-05-31T10:29:43;30.90;47.90
17202;DHT22;8717;53.588;10.176;2023-05-31T10:32:19;31.00;47.90
17202;DHT22;8717;53.588;10.176;2023-05-31T10:34:47;31.10;47.20
17202;DHT22;8717;53.588;10.176;2023-05-31T10:37:14;31.20;47.20
17202;DHT22;8717;53.588;10.176;2023-05-31T10:39:44;31.30;47.40
17202;DHT22;8717;53.588;10.176;2023-05-31T10:42:20;31.40;45.70
17202;DHT22;8717;53.588;10.176;2023-05-31T10:44:53;31.50;45.70
17202;DHT22;8717;53.588;10.176;2023-05-31T10:47:28;31.50;45.20
17202;DHT22;8717;53.588;10.176;2023-05-31T10:50:01;31.60;45.20
17202;DHT22;8717;53.588;10.176;2023-05-31T10:52:29;31.60;44.80
17202;DHT22;8717;53.588;10.176;2023-05-31T10:55:14;31.50;45.20
17202;DHT22;8717;53.588;10.176;2023-05-31T10:57:42;31.40;44.40
17202;DHT22;8717;53.588;10.176;2023-05-31T11:00:10;31.40;44.30
17202;DHT22;8717;53.588;10.176;2023-05-31T11:02:37;31.40;44.40
17202;DHT22;8717;53.588;10.176;2023-05-31T11:05:18;31.50;44.20
17202;DHT22;8717;53.588;10.176;2023-05-31T11:07:45;31.50;44.20
17202;DHT22;8717;53.588;10.176;2023-05-31T11:10:24;31.60;44.00
17202;DHT22;8717;53.588;10.176;2023-05-31T11:12:53;31.70;43.90
17202;DHT22;8717;53.588;10.176;2023-05-31T11:15:19;31.80;44.30
17202;DHT22;8717;53.588;10.176;2023-05-31T11:17:53;31.90;44.10
17202;DHT22;8717;53.588;10.176;2023-05-31T11:20:20;32.00;43.80
17202;DHT22;8717;53.588;10.176;2023-05-31T11:22:48;32.10;43.90
17202;DHT22;8717;53.588;10.176;2023-05-31T11:25:34;32.20;43.50
17202;DHT22;8717;53.588;10.176;2023-05-31T11:28:09;32.10;43.60
17202;DHT22;8717;53.588;10.176;2023-05-31T11:30:37;32.10;43.80
17202;DHT22;8717;53.588;10.176;2023-05-31T11:33:13;32.10;43.70
17202;DHT22;8717;53.588;10.176;2023-05-31T11:35:40;32.00;43.30
17202;DHT22;8717;53.588;10.176;2023-05-31T11:38:07;32.00;44.10
17202;DHT22;8717;53.588;10.176;2023-05-31T11:40:34;32.00;43.60
17202;DHT22;8717;53.588;10.176;2023-05-31T11:43:03;31.90;42.60
17202;DHT22;8717;53.588;10.176;2023-05-31T11:45:33;31.80;42.80
17202;DHT22;8717;53.588;10.176;2023-05-31T11:48:17;31.70;42.70
17202;DHT22;8717;53.588;10.176;2023-05-31T11:50:48;31.50;42.70
17202;DHT22;8717;53.588;10.176;2023-05-31T11:53:14;31.40;43.40
17202;DHT22;8717;53.588;10.176;2023-05-31T11:55:45;31.30;43.30
17202;DHT22;8717;53.588;10.176;2023-05-31T11:58:12;31.20;43.60
17202;DHT22;8717;53.588;10.176;2023-05-31T12:00:44;31.20;43.90
17202;DHT22;8717;53.588;10.176;2023-05-31T12:03:14;31.20;43.80
17202;DHT22;8717;53.588;10.176;2023-05-31T12:05:44;31.10;44.10
17202;DHT22;8717;53.588;10.176;2023-05-31T12:08:15;31.10;44.10
17202;DHT22;8717;53.588;10.176;2023-05-31T12:10:42;31.00;44.20
17202;DHT22;8717;53.588;10.176;2023-05-31T12:13:11;30.80;44.30
17202;DHT22;8717;53.588;10.176;2023-05-31T12:15:38;30.60;44.80
17202;DHT22;8717;53.588;10.176;2023-05-31T12:18:06;30.40;45.30
17202;DHT22;8717;53.588;10.176;2023-05-31T12:20:33;30.10;45.90
17202;DHT22;8717;53.588;10.176;2023-05-31T12:23:10;29.90;46.20
17202;DHT22;8717;53.588;10.176;2023-05-31T12:25:42;29.80;46.90
17202;DHT22;8717;53.588;10.176;2023-05-31T12:28:10;29.80;47.30
17202;DHT22;8717;53.588;10.176;2023-05-31T12:30:41;29.70;47.30
17202;DHT22;8717;53.588;10.176;2023-05-31T12:33:10;29.70;47.40
17202;DHT22;8717;53.588;10.176;2023-05-31T12:35:42;29.70;47.90
17202;DHT22;8717;53.588;10.176;2023-05-31T12:38:09;29.60;48.70
17202;DHT22;8717;53.588;10.176;2023-05-31T12:40:40;29.70;48.70
17202;DHT22;8717;53.588;10.176;2023-05-31T12:43:07;29.70;49.20
17202;DHT22;8717;53.588;10.176;2023-05-31T12:45:39;29.80;49.30
17202;DHT22;8717;53.588;10.176;2023-05-31T12:48:07;30.00;49.60
17202;DHT22;8717;53.588;10.176;2023-05-31T12:50:35;30.10;49.30
17202;DHT22;8717;53.588;10.176;2023-05-31T12:53:05;30.20;49.20
17202;DHT22;8717;53.588;10.176;2023-05-31T12:55:33;30.20;48.80
17202;DHT22;8717;53.588;10.176;2023-05-31T12:58:00;30.30;49.50
17202;DHT22;8717;53.588;10.176;2023-05-31T13:00:27;30.30;48.90
17202;DHT22;8717;53.588;10.176;2023-05-31T13:02:53;30.30;48.70
17202;DHT22;8717;53.588;10.176;2023-05-31T13:05:20;30.30;48.70
17202;DHT22;8717;53.588;10.176;2023-05-31T13:07:48;30.30;48.80
17202;DHT22;8717;53.588;10.176;2023-05-31T13:10:15;30.10;49.00
17202;DHT22;8717;53.588;10.176;2023-05-31T13:12:42;30.10;49.40
17202;DHT22;8717;53.588;10.176;2023-05-31T13:15:09;30.00;49.60
17202;DHT22;8717;53.588;10.176;2023-05-31T13:17:36;29.80;49.60
17202;DHT22;8717;53.588;10.176;2023-05-31T13:20:03;29.80;49.70
17202;DHT22;8717;53.588;10.176;2023-05-31T13:22:32;29.70;50.00
17202;DHT22;8717;53.588;10.176;2023-05-31T13:25:00;29.70;49.60
17202;DHT22;8717;53.588;10.176;2023-05-31T13:27:27;29.60;49.50
17202;DHT22;8717;53.588;10.176;2023-05-31T13:29:53;29.60;49.80
17202;DHT22;8717;53.588;10.176;2023-05-31T13:32:20;29.50;49.90
17202;DHT22;8717;53.588;10.176;2023-05-31T13:34:47;29.50;49.80
17202;DHT22;8717;53.588;10.176;2023-05-31T13:37:14;29.50;49.70
17202;DHT22;8717;53.588;10.176;2023-05-31T13:39:46;29.40;49.60
17202;DHT22;8717;53.588;10.176;2023-05-31T13:42:14;29.40;49.70
17202;DHT22;8717;53.588;10.176;2023-05-31T13:44:41;29.30;49.50
17202;DHT22;8717;53.588;10.176;2023-05-31T13:47:08;29.30;49.30
17202;DHT22;8717;53.588;10.176;2023-05-31T13:49:34;29.30;48.80
17202;DHT22;8717;53.588;10.176;2023-05-31T13:52:02;29.20;48.90
17202;DHT22;8717;53.588;10.176;2023-05-31T13:54:30;29.10;49.00
17202;DHT22;8717;53.588;10.176;2023-05-31T13:56:57;29.00;49.10
17202;DHT22;8717;53.588;10.176;2023-05-31T13:59:26;28.90;49.30
17202;DHT22;8717;53.588;10.176;2023-05-31T14:01:53;28.80;49.40
17202;DHT22;8717;53.588;10.176;2023-05-31T14:04:20;28.70;49.70
17202;DHT22;8717;53.588;10.176;2023-05-31T14:06:46;28.70;49.90
17202;DHT22;8717;53.588;10.176;2023-05-31T14:09:13;28.60;49.90
17202;DHT22;8717;53.588;10.176;2023-05-31T14:11:40;28.50;49.50
17202;DHT22;8717;53.588;10.176;2023-05-31T14:14:07;28.40;49.60
17202;DHT22;8717;53.588;10.176;2023-05-31T14:16:35;28.30;49.80
17202;DHT22;8717;53.588;10.176;2023-05-31T14:19:01;28.10;49.90
17202;DHT22;8717;53.588;10.176;2023-05-31T14:21:28;28.00;49.70
17202;DHT22;8717;53.588;10.176;2023-05-31T14:23:55;27.90;50.00
17202;DHT22;8717;53.588;10.176;2023-05-31T14:26:21;27.70;50.00
17202;DHT22;8717;53.588;10.176;2023-05-31T14:28:48;27.60;50.10
17202;DHT22;8717;53.588;10.176;2023-05-31T14:31:14;27.50;50.30
17202;DHT22;8717;53.588;10.176;2023-05-31T14:33:42;27.50;50.60
17202;DHT22;8717;53.588;10.176;2023-05-31T14:36:09;27.40;50.20
17202;DHT22;8717;53.588;10.176;2023-05-31T14:38:36;27.30;50.10
17202;DHT22;8717;53.588;10.176;2023-05-31T14:41:03;27.30;50.00
17202;DHT22;8717;53.588;10.176;2023-05-31T14:43:29;27.10;50.00
17202;DHT22;8717;53.588;10.176;2023-05-31T14:45:56;27.00;50.10
17202;DHT22;8717;53.588;10.176;2023-05-31T14:48:23;26.90;50.50
17202;DHT22;8717;53.588;10.176;2023-05-31T14:50:51;26.80;51.00
17202;DHT22;8717;53.588;10.176;2023-05-31T14:53:18;26.60;51.10
17202;DHT22;8717;53.588;10.176;2023-05-31T14:55:44;26.50;51.30
17202;DHT22;8717;53.588;10.176;2023-05-31T14:58:11;26.40;51.20
17202;DHT22;8717;53.588;10.176;2023-05-31T15:00:38;26.30;51.50
17202;DHT22;8717;53.588;10.176;2023-05-31T15:03:05;26.20;51.70
17202;DHT22;8717;53.588;10.176;2023-05-31T15:05:32;26.10;52.20
17202;DHT22;8717;53.588;10.176;2023-05-31T15:07:59;26.00;52.60
17202;DHT22;8717;53.588;10.176;2023-05-31T15:10:26;25.90;52.70
17202;DHT22;8717;53.588;10.176;2023-05-31T15:12:55;25.70;52.70
17202;DHT22;8717;53.588;10.176;2023-05-31T15:15:22;25.60;53.40
17202;DHT22;8717;53.588;10.176;2023-05-31T15:17:49;25.50;53.40
17202;DHT22;8717;53.588;10.176;2023-05-31T15:20:15;25.40;53.00
17202;DHT22;8717;53.588;10.176;2023-05-31T15:22:43;25.30;53.10
17202;DHT22;8717;53.588;10.176;2023-05-31T15:25:11;25.30;53.10
17202;DHT22;8717;53.588;10.176;2023-05-31T15:27:37;25.20;53.00
17202;DHT22;8717;53.588;10.176;2023-05-31T15:30:05;25.10;53.00
17202;DHT22;8717;53.588;10.176;2023-05-31T15:32:32;25.00;53.30
17202;DHT22;8717;53.588;10.176;2023-05-31T15:34:59;24.90;53.50
17202;DHT22;8717;53.588;10.176;2023-05-31T15:37:25;24.80;53.80
17202;DHT22;8717;53.588;10.176;2023-05-31T15:39:52;24.80;53.90
17202;DHT22;8717;53.588;10.176;2023-05-31T15:42:20;24.60;54.20
17202;DHT22;8717;53.588;10.176;2023-05-31T15:44:47;24.60;55.00
17202;DHT22;8717;53.588;10.176;2023-05-31T15:47:15;24.50;55.00
17202;DHT22;8717;53.588;10.176;2023-05-31T15:49:42;24.50;55.40
17202;DHT22;8717;53.588;10.176;2023-05-31T15:52:08;24.40;55.00
17202;DHT22;8717;53.588;10.176;2023-05-31T15:54:35;24.40;55.20
17202;DHT22;8717;53.588;10.176;2023-05-31T15:57:02;24.40;55.70
17202;DHT22;8717;53.588;10.176;2023-05-31T15:59:30;24.30;55.90
17202;DHT22;8717;53.588;10.176;2023-05-31T16:01:57;24.30;56.20
17202;DHT22;8717;53.588;10.176;2023-05-31T16:04:24;24.20;56.30
17202;DHT22;8717;53.588;10.176;2023-05-31T16:06:51;24.20;56.90